Time;durP1;ratioP1;P1;durP2;ratioP2;P2;SDS_P1;SDS_P2;PMS_P1;PMS_P2;Temp;Humidity;BMP_temperature;BMP_pressure;BME280_temperature;BME280_humidity;BME280_pressure;Samples;Min_cycle;Max_cycle;Signal;HPM_P1;HPM_P2
2023/09/29 00:00:51;;;;;;;9.30;2.60;;;;;;;20.82;65.83;99989.47;4992629;28;20037;-91
2023/09/29 00:03:17;;;;;;;5.05;3.08;;;;;;;20.62;65.55;99968.16;4993184;28;20037;-90
2023/09/29 00:05:46;;;;;;;10.18;3.30;;;;;;;20.71;65.58;99973.06;5011154;28;20060;-90
2023/09/29 00:08:17;;;;;;;3.60;1.77;;;;;;;20.88;65.43;100021.31;5011089;28;20128;-91
2023/09/29 00:10:45;;;;;;;4.55;2.67;;;;;;;20.62;65.63;99977.06;5011018;28;20022;-90
2023/09/29 00:13:11;;;;;;;5.00;2.60;;;;;;;20.39;65.52;99946.13;5009914;28;20037;-90
2023/09/29 00:15:38;;;;;;;7.25;2.75;;;;;;;20.40;65.50;99961.22;5010982;28;20029;-91
2023/09/29 00:18:05;;;;;;;7.43;3.08;;;;;;;20.35;65.73;99945.38;5011053;28;20080;-91
2023/09/29 00:20:31;;;;;;;4.32;2.42;;;;;;;20.41;66.06;99976.38;5011282;28;20044;-90
2023/09/29 00:22:59;;;;;;;3.58;2.33;;;;;;;20.52;66.25;99995.41;5010152;28;20021;-90
2023/09/29 00:25:25;;;;;;;5.95;3.05;;;;;;;20.37;66.73;99985.50;5010853;28;20022;-91
2023/09/29 00:27:51;;;;;;;7.38;2.88;;;;;;;20.35;66.89;99982.88;5010086;28;20048;-91
2023/09/29 00:30:17;;;;;;;8.82;2.97;;;;;;;20.52;67.28;99999.94;5010417;28;20046;-92
2023/09/29 00:32:50;;;;;;;5.97;3.00;;;;;;;20.25;67.19;99976.28;4992678;28;20034;-93
2023/09/29 00:35:29;;;;;;;6.53;2.25;;;;;;;20.27;67.14;99962.81;4973661;28;20022;-92
2023/09/29 00:37:55;;;;;;;6.75;2.83;;;;;;;20.24;66.94;99982.56;4973402;28;20038;-92
2023/09/29 00:40:22;;;;;;;7.72;2.97;;;;;;;20.39;67.53;99987.16;4991154;28;20128;-91
2023/09/29 00:42:48;;;;;;;9.65;2.67;;;;;;;20.32;67.48;99985.72;4973231;28;20394;-92
2023/09/29 00:45:22;;;;;;;5.60;3.10;;;;;;;20.27;67.26;99966.34;5006431;28;20038;-91
2023/09/29 00:47:50;;;;;;;4.90;2.40;;;;;;;20.32;67.34;99975.00;4992268;28;20034;-92
2023/09/29 00:50:19;;;;;;;6.05;3.30;;;;;;;20.28;67.40;99969.88;4992391;28;20037;-91
2023/09/29 00:52:47;;;;;;;7.18;3.03;;;;;;;20.20;67.50;99957.78;5009657;28;20030;-92
2023/09/29 00:55:16;;;;;;;5.95;3.10;;;;;;;20.35;67.06;99979.34;5009949;28;20074;-92
2023/09/29 00:57:48;;;;;;;4.15;2.75;;;;;;;20.11;68.00;99984.13;4993219;28;20026;-91
2023/09/29 01:00:37;;;;;;;6.88;3.53;;;;;;;20.14;67.09;99975.94;4993324;28;20037;-91
2023/09/29 01:03:09;;;;;;;4.30;2.90;;;;;;;19.94;67.70;99974.25;5009416;28;20034;-91
2023/09/29 01:05:41;;;;;;;6.88;2.53;;;;;;;19.74;68.45;99970.72;4976588;28;20034;-91
2023/09/29 01:08:09;;;;;;;11.10;2.75;;;;;;;19.87;68.40;99984.41;5010429;28;20652;-91
2023/09/29 01:10:39;;;;;;;10.02;3.33;;;;;;;20.22;68.07;100027.34;4992573;28;20132;-91
2023/09/29 01:13:07;;;;;;;6.20;3.03;;;;;;;19.85;68.30;99980.94;5010068;28;20084;-92
2023/09/29 01:15:34;;;;;;;9.18;3.25;;;;;;;19.76;68.24;99994.75;4991927;28;20046;-90
2023/09/29 01:18:01;;;;;;;6.28;3.55;;;;;;;19.45;68.73;99975.66;5009905;28;20076;-92
2023/09/29 01:20:28;;;;;;;5.88;3.40;;;;;;;19.43;68.62;99961.50;4976279;28;20509;-92
2023/09/29 01:22:56;;;;;;;6.68;3.42;;;;;;;19.42;68.74;99969.59;4992209;28;20148;-92
2023/09/29 01:25:22;;;;;;;5.28;3.22;;;;;;;19.35;68.33;99947.59;4992852;28;20038;-91
2023/09/29 01:27:48;;;;;;;9.13;3.13;;;;;;;19.52;68.53;99978.03;5009447;28;20099;-90
2023/09/29 01:30:16;;;;;;;8.75;2.53;;;;;;;19.33;68.41;99953.03;4975370;28;20062;-91
2023/09/29 01:32:42;;;;;;;5.82;3.08;;;;;;;19.40;68.64;99971.47;4952797;28;20425;-91
2023/09/29 01:35:12;;;;;;;7.95;2.47;;;;;;;19.41;68.55;99958.00;4970927;28;20035;-90
2023/09/29 01:37:38;;;;;;;10.00;4.10;;;;;;;19.82;68.58;100039.97;4969320;28;20023;-91
2023/09/29 01:40:07;;;;;;;6.35;3.28;;;;;;;19.60;68.03;99978.53;4970818;28;20035;-91
2023/09/29 01:42:34;;;;;;;6.00;3.25;;;;;;;19.44;67.57;99965.03;4966373;28;20035;-90
2023/09/29 01:45:01;;;;;;;6.50;3.55;;;;;;;19.47;68.89;100018.41;4970563;28;20133;-90
2023/09/29 01:47:27;;;;;;;9.35;3.90;;;;;;;19.27;68.71;99995.25;4970954;28;20039;-91
2023/09/29 01:49:52;;;;;;;6.20;3.70;;;;;;;19.37;68.44;100004.59;4951398;28;20125;-90
2023/09/29 01:52:18;;;;;;;7.95;3.58;;;;;;;19.18;68.63;99971.59;4971300;28;20042;-90
2023/09/29 01:54:44;;;;;;;7.05;3.03;;;;;;;19.25;68.75;99995.31;4971107;28;20051;-89
2023/09/29 01:57:10;;;;;;;6.07;3.05;;;;;;;19.00;68.63;99974.19;4977932;28;20433;-90
2023/09/29 01:59:36;;;;;;;13.48;3.40;;;;;;;19.08;68.41;99964.00;4980946;28;20523;-89
2023/09/29 02:02:01;;;;;;;8.85;3.55;;;;;;;19.26;68.58;100002.41;4974404;28;20081;-89
2023/09/29 02:04:27;;;;;;;4.50;2.78;;;;;;;18.88;68.19;99972.94;4972904;28;20492;-90
2023/09/29 02:06:53;;;;;;;5.85;2.70;;;;;;;18.59;68.58;99944.81;4972781;28;20035;-90
2023/09/29 02:09:19;;;;;;;6.75;3.80;;;;;;;18.85;69.32;99977.56;4973955;28;20489;-90
2023/09/29 02:11:45;;;;;;;12.05;3.10;;;;;;;18.82;69.13;99975.00;4974184;28;20148;-90
2023/09/29 02:14:11;;;;;;;4.45;2.65;;;;;;;19.14;69.78;100043.09;4973897;28;20078;-89
2023/09/29 02:16:37;;;;;;;8.73;2.92;;;;;;;18.67;69.93;99953.34;4973881;28;20532;-89
2023/09/29 02:19:03;;;;;;;7.00;3.60;;;;;;;18.70;69.65;99947.84;4974129;28;20045;-89
2023/09/29 02:21:32;;;;;;;27.65;3.13;;;;;;;18.95;69.64;99977.06;4971499;28;20058;-89
2023/09/29 02:24:00;;;;;;;5.28;3.22;;;;;;;18.84;68.95;99949.06;4974040;28;20042;-90
2023/09/29 02:26:28;;;;;;;4.88;2.42;;;;;;;18.96;69.27;99964.56;4973984;28;20038;-90
2023/09/29 02:28:55;;;;;;;6.55;2.78;;;;;;;19.03;69.01;99960.69;4986952;28;20134;-90
2023/09/29 02:31:20;;;;;;;4.13;2.53;;;;;;;18.95;69.26;99950.34;5011288;28;20044;-88
2023/09/29 02:33:46;;;;;;;4.03;2.85;;;;;;;18.90;69.30;99957.69;5012510;28;20455;-88
2023/09/29 02:36:11;;;;;;;4.47;2.28;;;;;;;19.06;68.99;99970.34;5012193;28;20038;-89
2023/09/29 02:38:37;;;;;;;8.52;2.63;;;;;;;19.04;69.09;99970.44;5012327;28;20492;-89
2023/09/29 02:41:04;;;;;;;6.38;3.00;;;;;;;19.01;68.69;99946.50;5011494;28;20030;-88
2023/09/29 02:43:32;;;;;;;4.20;2.78;;;;;;;18.89;69.35;99947.06;5012322;28;20131;-89
2023/09/29 02:45:58;;;;;;;9.73;2.95;;;;;;;18.89;69.69;99941.72;5012188;28;20033;-89
2023/09/29 02:48:24;;;;;;;5.38;2.80;;;;;;;19.38;69.22;100014.31;5012637;28;20045;-89
2023/09/29 02:50:50;;;;;;;6.57;3.45;;;;;;;19.20;69.23;99985.75;5012448;28;20069;-88
2023/09/29 02:53:16;;;;;;;9.65;2.85;;;;;;;19.13;69.57;99978.03;5009853;28;20459;-89
2023/09/29 02:55:45;;;;;;;4.97;2.40;;;;;;;19.10;69.64;99964.78;5012395;28;20074;-89
2023/09/29 02:58:12;;;;;;;9.32;3.38;;;;;;;19.23;69.38;99994.53;5011072;28;20037;-89
2023/09/29 03:00:39;;;;;;;6.00;3.20;;;;;;;19.13;69.74;99955.78;4992894;28;20038;-89
2023/09/29 03:03:06;;;;;;;13.52;2.65;;;;;;;19.08;69.48;99961.34;4993601;28;20573;-88
2023/09/29 03:05:32;;;;;;;4.00;2.45;;;;;;;19.40;69.44;100003.56;4992051;28;20057;-89
2023/09/29 03:07:58;;;;;;;9.68;3.97;;;;;;;19.22;69.09;99971.38;4992650;28;20042;-85
2023/09/29 03:10:27;;;;;;;10.90;2.33;;;;;;;19.44;69.32;99986.44;4992105;28;20027;-88
2023/09/29 03:12:56;;;;;;;5.82;3.13;;;;;;;19.67;69.14;100049.56;4992032;28;20105;-86
2023/09/29 03:15:23;;;;;;;4.20;2.33;;;;;;;19.14;69.33;99955.69;5004197;28;20096;-87
2023/09/29 03:18:10;;;;;;;;;;;;;;;;;;;;;
2023/09/29 03:20:37;;;;;;;8.88;2.97;;;;;;;19.25;68.63;99957.88;5003813;28;20407;-88
2023/09/29 03:23:04;;;;;;;4.43;2.72;;;;;;;19.31;68.70;99978.13;4994337;28;20120;-88
2023/09/29 03:25:29;;;;;;;3.50;2.38;;;;;;;19.53;68.36;100001.19;4992918;28;20420;-87
2023/09/29 03:27:55;;;;;;;13.05;4.65;;;;;;;19.25;68.29;99957.88;5011792;28;20025;-92
2023/09/29 03:30:21;;;;;;;12.68;3.67;;;;;;;19.24;68.33;99955.28;5011606;28;20054;-87
2023/09/29 03:32:47;;;;;;;6.38;2.47;;;;;;;19.16;68.20;99957.44;5011654;28;20034;-89
2023/09/29 03:35:13;;;;;;;5.30;3.13;;;;;;;19.04;68.22;99949.03;5011312;28;20583;-88
2023/09/29 03:37:39;;;;;;;5.50;3.15;;;;;;;19.37;68.24;99993.00;5011664;28;20411;-87
2023/09/29 03:40:09;;;;;;;3.50;2.13;;;;;;;19.26;68.88;99970.31;4993785;28;20419;-88
2023/09/29 03:42:36;;;;;;;10.05;2.90;;;;;;;19.06;68.54;99954.31;5011571;28;20496;-89
2023/09/29 03:45:05;;;;;;;5.00;3.13;;;;;;;19.55;68.11;100018.88;5011324;28;20476;-90
2023/09/29 03:47:34;;;;;;;7.43;3.22;;;;;;;19.10;68.08;99937.19;5011575;28;20030;-86
2023/09/29 03:50:01;;;;;;;6.93;2.47;;;;;;;19.37;68.50;99999.25;5011441;28;20080;-86
2023/09/29 03:52:29;;;;;;;6.55;3.03;;;;;;;19.28;67.55;99971.09;5010978;28;20484;-89
2023/09/29 03:54:55;;;;;;;9.38;3.13;;;;;;;19.44;67.89;99992.63;5011662;28;20030;-88
2023/09/29 03:57:32;;;;;;;7.97;3.13;;;;;;;18.99;68.18;99951.06;5011032;28;20099;-90
2023/09/29 03:59:58;;;;;;;4.38;2.58;;;;;;;19.06;68.20;99939.16;4993806;28;20499;-91
2023/09/29 04:02:23;;;;;;;4.55;2.90;;;;;;;19.29;67.87;99967.50;5011133;28;20063;-89
2023/09/29 04:04:49;;;;;;;3.45;2.35;;;;;;;19.29;67.91;99961.25;5011093;28;20485;-89
2023/09/29 04:07:18;;;;;;;6.53;2.97;;;;;;;19.45;68.21;99982.84;5010600;28;20069;-89
2023/09/29 04:09:43;;;;;;;12.25;3.22;;;;;;;19.59;67.84;100023.16;4993759;28;20029;-89
2023/09/29 04:12:09;;;;;;;9.73;4.00;;;;;;;19.11;68.27;99953.16;4993215;28;20049;-89
2023/09/29 04:14:34;;;;;;;7.28;4.22;;;;;;;19.07;67.91;99940.88;5011579;28;20022;-89
2023/09/29 04:17:04;;;;;;;8.63;4.35;;;;;;;18.79;68.08;99928.75;5010343;28;20503;-91
2023/09/29 04:19:30;;;;;;;7.50;3.55;;;;;;;19.05;68.01;99936.56;5021606;28;20408;-90
2023/09/29 04:22:07;;;;;;;7.72;3.47;;;;;;;19.12;67.60;99965.63;5018565;28;20034;-93
2023/09/29 04:25:01;;;;;;;9.40;3.67;;;;;;;19.26;68.41;100005.09;5011782;28;20420;-91
2023/09/29 04:27:26;;;;;;;5.40;3.20;;;;;;;18.95;67.77;99928.97;4993202;28;20037;-90
2023/09/29 04:36:37;;;;;;;;;;;;;;;;;;;;;
2023/09/29 04:39:10;;;;;;;5.13;3.13;;;;;;;19.56;66.40;99995.69;5010954;28;20044;-94
2023/09/29 04:41:57;;;;;;;5.80;2.90;;;;;;;19.25;66.09;99927.59;4949952;29;20047;-94
2023/09/29 04:44:33;;;;;;;6.13;4.00;;;;;;;19.13;66.05;99918.34;4931308;29;20031;-93
2023/09/29 04:48:01;;;;;;;;;;;;;;;;;;;;;
2023/09/29 04:50:27;;;;;;;9.18;3.35;;;;;;;19.56;65.78;100033.16;4892383;29;20507;-92
2023/09/29 04:53:07;;;;;;;15.27;3.28;;;;;;;19.27;65.70;99958.66;4892941;29;20044;-94
2023/09/29 04:58:59;;;;;;;11.25;3.30;;;;;;;19.20;65.49;99956.34;4877839;29;20537;-89
2023/09/29 05:11:27;;;;;;;15.75;4.07;;;;;;;19.27;65.21;99917.69;4819665;29;20045;-89
2023/09/29 05:13:53;;;;;;;7.20;4.47;;;;;;;19.55;64.91;99937.78;4869268;29;20064;-86
2023/09/29 05:16:19;;;;;;;12.90;3.75;;;;;;;19.75;65.02;99967.09;4863190;29;20574;-86
2023/09/29 05:18:45;;;;;;;9.02;4.78;;;;;;;19.77;64.91;99921.56;4868611;29;20040;-87
2023/09/29 05:31:12;;;;;;;7.85;4.60;;;;;;;20.74;62.81;100026.50;4909075;29;20068;-92
2023/09/29 05:34:08;;;;;;;8.15;3.83;;;;;;;20.58;62.37;99971.00;4900378;29;20048;-93
2023/09/29 06:20:30;;;;;;;3.45;1.42;;;;;;;23.82;47.07;100023.06;6048372;23;20108;31
2023/09/29 06:26:25;;;;;;;9.55;3.15;;;;;;;23.76;46.61;99982.09;4875305;29;20076;-90
2023/09/29 06:29:09;;;;;;;11.07;2.75;;;;;;;23.37;47.36;99977.47;4859874;29;20104;-91
2023/09/29 06:38:35;;;;;;;10.52;2.40;;;;;;;23.93;44.89;99974.78;4773152;29;20039;-90
2023/09/29 06:41:22;;;;;;;6.03;2.00;;;;;;;23.88;44.02;99987.69;4783495;29;20144;-90
2023/09/29 06:44:14;;;;;;;4.55;2.15;;;;;;;23.60;43.86;99959.81;4797925;29;20050;-89
2023/09/29 06:46:42;;;;;;;9.02;1.77;;;;;;;23.84;43.20;100016.66;4803222;29;20047;-88
2023/09/29 06:49:22;;;;;;;6.07;2.15;;;;;;;;;;4802762;29;20049;-90
2023/09/29 06:52:08;;;;;;;9.10;2.13;;;;;;;23.57;42.97;99990.53;4787783;29;20161;-88
2023/09/29 06:54:34;;;;;;;4.38;2.30;;;;;;;23.29;42.60;99936.72;4803941;29;20053;-90
2023/09/29 06:56:59;;;;;;;6.28;2.42;;;;;;;23.67;42.75;99984.53;4819868;29;20509;-92
2023/09/29 06:59:27;;;;;;;8.07;2.53;;;;;;;23.49;42.60;99990.13;4837833;29;20140;-92
2023/09/29 07:05:24;;;;;;;8.52;2.20;;;;;;;23.23;41.95;99960.38;4825597;29;20170;-90
2023/09/29 07:08:21;;;;;;;3.28;1.27;;;;;;;22.92;41.97;99945.25;4824436;29;20030;-92
2023/09/29 07:10:53;;;;;;;13.02;2.25;;;;;;;22.88;41.29;99959.88;4825860;29;20070;-95
2023/09/29 07:13:19;;;;;;;9.32;2.40;;;;;;;23.04;42.08;99967.84;4822954;29;20039;-90
2023/09/29 07:15:53;;;;;;;9.75;1.88;;;;;;;23.10;41.04;99972.03;4857796;29;20052;-88
2023/09/29 07:18:54;;;;;;;8.70;2.03;;;;;;;23.25;40.59;99957.59;5291566;23;20063;-96
2023/09/29 07:49:18;;;;;;;;;;;;;;;;;;;;;
2023/09/29 07:59:53;;;;;;;9.35;1.40;;;;;;;25.25;35.23;100024.19;4954830;29;20126;-94
2023/09/29 08:40:44;;;;;;;9.02;1.55;;;;;;;26.57;32.26;100007.34;4894424;29;20083;-93
2023/09/29 08:43:20;;;;;;;8.35;1.50;;;;;;;26.29;32.52;99927.50;4924409;29;20043;-91
2023/09/29 08:46:17;;;;;;;7.28;1.50;;;;;;;26.50;31.62;99936.66;4951547;29;20094;-91
2023/09/29 08:48:49;;;;;;;5.65;1.42;;;;;;;27.09;31.88;99981.66;4895018;29;20043;-92
2023/09/29 08:51:31;;;;;;;4.70;1.67;;;;;;;27.28;32.05;99980.19;4910880;29;20048;-89
2023/09/29 08:54:06;;;;;;;1.98;1.13;;;;;;;27.45;30.93;99957.19;4895744;29;20482;-88
2023/09/29 08:56:34;;;;;;;3.55;1.70;;;;;;;27.12;30.63;99931.84;4894794;29;20032;-89
2023/09/29 08:59:04;;;;;;;4.18;1.65;;;;;;;26.98;30.08;99951.88;4911246;29;20059;-88
2023/09/29 09:01:30;;;;;;;2.78;1.38;;;;;;;27.23;29.71;99948.06;4912139;29;20077;-89
2023/09/29 09:04:18;;;;;;;8.00;1.30;;;;;;;27.57;30.09;99968.88;4930330;29;20040;-88
2023/09/29 09:06:47;;;;;;;2.53;1.48;;;;;;;27.97;29.60;99973.75;4930113;29;20047;-90
2023/09/29 09:09:20;;;;;;;7.93;1.90;;;;;;;28.05;29.25;99952.25;4930269;29;20134;-89
2023/09/29 09:11:46;;;;;;;7.25;1.30;;;;;;;27.56;28.03;99951.78;4914175;29;20067;-90
2023/09/29 09:14:12;;;;;;;3.65;1.48;;;;;;;27.54;29.76;99958.28;4928764;29;20525;-89
2023/09/29 09:16:38;;;;;;;6.95;1.45;;;;;;;27.86;29.65;99963.75;4930212;29;20040;-90
2023/09/29 09:19:28;;;;;;;5.70;1.92;;;;;;;28.31;30.28;99965.47;4930090;29;20074;-90
2023/09/29 09:21:54;;;;;;;10.15;2.45;;;;;;;27.63;26.97;99946.69;4928656;29;20031;-86
2023/09/29 09:24:21;;;;;;;9.38;1.90;;;;;;;28.18;27.64;99981.94;4930188;29;20050;-86
2023/09/29 09:27:28;;;;;;;3.67;1.85;;;;;;;28.26;26.99;99982.13;4967136;28;20516;-92
2023/09/29 09:29:54;;;;;;;6.20;1.60;;;;;;;28.37;26.00;100028.19;4936359;28;20069;-88
2023/09/29 09:32:31;;;;;;;5.07;2.38;;;;;;;28.13;24.83;99943.47;4961857;28;20624;-91
2023/09/29 09:34:58;;;;;;;5.03;2.28;;;;;;;27.98;23.91;99957.34;4974834;28;20046;-87
2023/09/29 09:37:26;;;;;;;5.38;1.70;;;;;;;28.18;22.85;99949.38;4951013;29;20035;-86
2023/09/29 09:39:55;;;;;;;2.72;1.75;;;;;;;28.69;24.27;99953.22;4951179;29;20031;-85
2023/09/29 09:42:24;;;;;;;3.92;2.03;;;;;;;28.81;23.49;99964.84;4951647;29;20060;-85
2023/09/29 09:44:50;;;;;;;2.50;1.67;;;;;;;28.82;24.42;99964.69;4950644;29;20470;-87
2023/09/29 09:47:18;;;;;;;5.40;2.97;;;;;;;28.98;23.44;100004.06;4934046;29;20074;-85
2023/09/29 09:49:48;;;;;;;11.27;3.80;;;;;;;28.84;23.75;99945.56;4951036;29;20044;-86
2023/09/29 09:52:35;;;;;;;6.47;1.95;;;;;;;29.11;23.87;100007.44;4950709;29;20089;-86
2023/09/29 09:55:15;;;;;;;6.13;2.75;;;;;;;28.75;24.31;99990.69;4949118;29;20106;-86
2023/09/29 09:57:43;;;;;;;6.05;2.03;;;;;;;28.46;23.78;99968.72;4951431;29;20114;-84
2023/09/29 10:00:11;;;;;;;6.80;1.75;;;;;;;28.35;25.05;99948.81;4950497;29;20410;-87
2023/09/29 10:02:43;;;;;;;3.50;1.42;;;;;;;28.89;24.50;99995.75;4951198;29;20031;-87
2023/09/29 10:05:17;;;;;;;3.15;1.50;;;;;;;28.90;24.62;99955.88;4950977;29;20102;-86
2023/09/29 10:08:05;;;;;;;5.25;1.73;;;;;;;29.18;23.43;99950.72;4950084;29;20031;-86
2023/09/29 10:10:36;;;;;;;4.25;2.15;;;;;;;29.25;24.34;99957.38;4950734;29;20100;-85
2023/09/29 10:13:03;;;;;;;3.35;1.38;;;;;;;29.39;23.44;99953.41;4950567;29;20034;-85
2023/09/29 10:15:30;;;;;;;5.93;2.50;;;;;;;29.29;24.34;99942.53;4950479;28;20114;-86
2023/09/29 10:17:59;;;;;;;11.40;2.00;;;;;;;29.15;23.22;99929.28;4954056;29;20490;-87
2023/09/29 10:20:30;;;;;;;4.03;2.13;;;;;;;28.96;23.59;99909.19;4953786;29;20031;-84
2023/09/29 10:23:06;;;;;;;3.00;1.83;;;;;;;28.45;23.19;99908.16;4971927;28;20026;-84
2023/09/29 10:25:39;;;;;;;7.32;2.60;;;;;;;28.58;23.64;99922.44;4973305;28;20062;-88
2023/09/29 10:28:07;;;;;;;3.95;2.05;;;;;;;29.21;22.76;99950.47;4973146;28;20034;-88
2023/09/29 10:30:34;;;;;;;4.97;2.40;;;;;;;28.89;23.49;99916.19;4972384;28;20031;-88
2023/09/29 10:33:11;;;;;;;4.40;2.33;;;;;;;29.04;23.66;99913.94;4955130;28;20054;-89
2023/09/29 10:35:45;;;;;;;4.45;1.80;;;;;;;29.21;23.49;99926.03;4955421;28;20022;-88
2023/09/29 10:38:22;;;;;;;9.13;2.17;;;;;;;28.67;23.98;99892.75;4972692;28;20054;-87
2023/09/29 10:40:48;;;;;;;3.53;2.13;;;;;;;28.73;22.71;99909.38;4960633;28;20267;-87
2023/09/29 10:43:17;;;;;;;4.78;2.47;;;;;;;28.50;23.00;99896.91;4973114;28;20440;-84
2023/09/29 10:45:44;;;;;;;6.10;2.30;;;;;;;28.73;22.67;99908.50;4971664;28;20058;-88
2023/09/29 10:48:13;;;;;;;16.27;3.58;;;;;;;28.74;22.28;99897.50;4955464;28;20089;-89
2023/09/29 10:50:52;;;;;;;13.68;2.78;;;;;;;29.46;23.13;99969.03;4972585;28;20050;-89
2023/09/29 10:53:28;;;;;;;3.53;1.80;;;;;;;29.40;22.29;99926.13;4971958;28;20457;-86
2023/09/29 10:55:56;;;;;;;5.57;2.03;;;;;;;28.92;21.85;99910.47;4971337;28;20035;-85
2023/09/29 10:58:22;;;;;;;7.10;3.13;;;;;;;29.19;21.57;99907.13;4971686;28;20038;-87
2023/09/29 11:00:49;;;;;;;5.47;2.92;;;;;;;28.96;22.17;99886.63;4954812;28;20066;-84
2023/09/29 11:03:17;;;;;;;4.00;1.98;;;;;;;28.98;22.33;99873.75;4972462;28;20031;-86
2023/09/29 11:05:57;;;;;;;5.00;2.63;;;;;;;28.73;21.87;99873.22;4972445;28;20035;-85
2023/09/29 11:08:32;;;;;;;4.38;1.83;;;;;;;29.04;23.30;99898.53;4972956;28;20551;-86
2023/09/29 11:10:59;;;;;;;;;;;;;;;29.41;22.13;99935.13;4972847;28;20085;-85
2023/09/29 11:13:28;;;;;;;7.05;2.80;;;;;;;29.26;21.83;99931.94;4973106;28;19914;-84
2023/09/29 11:15:56;;;;;;;5.75;2.55;;;;;;;29.26;22.05;99931.94;4972875;28;20058;-86
2023/09/29 11:18:47;;;;;;;3.55;1.92;;;;;;;28.61;22.32;99894.19;4972424;28;20031;-86
2023/09/29 11:21:13;;;;;;;5.32;1.98;;;;;;;28.81;22.50;99906.00;4968621;28;20450;-87
2023/09/29 11:23:47;;;;;;;8.88;3.22;;;;;;;28.76;22.35;99889.25;4972421;28;20034;-87
2023/09/29 11:26:13;;;;;;;8.67;2.77;;;;;;;28.61;22.30;99866.16;4955300;28;20062;-87
2023/09/29 11:28:47;;;;;;;4.63;2.05;;;;;;;28.93;21.75;99885.03;4971662;28;20285;-87
2023/09/29 11:31:15;;;;;;;4.60;2.40;;;;;;;28.88;22.44;99849.31;4965344;28;20039;-89
2023/09/29 11:33:41;;;;;;;4.80;2.60;;;;;;;29.12;22.02;99881.53;4972369;28;20461;-86
2023/09/29 11:36:18;;;;;;;5.20;1.75;;;;;;;29.06;22.14;99863.09;4972208;28;20035;-87
2023/09/29 11:39:00;;;;;;;6.57;2.30;;;;;;;28.97;22.34;99850.34;4971742;28;20549;-87
2023/09/29 11:41:26;;;;;;;8.32;2.40;;;;;;;29.13;22.38;99876.97;4955025;28;20117;-88
2023/09/29 11:43:51;;;;;;;4.13;2.25;;;;;;;29.13;22.33;99876.97;4971618;28;20174;-85
2023/09/29 11:46:19;;;;;;;3.15;1.92;;;;;;;28.97;21.90;99843.03;4971518;28;20058;-88
2023/09/29 11:48:46;;;;;;;3.63;1.80;;;;;;;29.36;22.42;99892.06;4954430;28;20031;-87
2023/09/29 11:51:13;;;;;;;3.92;2.05;;;;;;;29.11;22.90;99839.94;4971117;28;20062;-87
2023/09/29 11:53:42;;;;;;;3.13;1.73;;;;;;;29.21;22.17;99852.72;4953734;28;20043;-87
2023/09/29 11:56:17;;;;;;;6.93;2.22;;;;;;;29.23;23.52;99848.03;4971460;28;20042;-88
2023/09/29 11:58:43;;;;;;;2.03;1.48;;;;;;;29.51;23.19;99881.66;4941442;28;20054;-89
2023/09/29 12:01:08;;;;;;;3.40;1.80;;;;;;;29.18;23.78;99842.97;4971771;28;20521;-89
2023/09/29 12:03:34;;;;;;;3.47;1.83;;;;;;;29.11;24.07;99839.94;4971937;28;20528;-88
2023/09/29 12:06:02;;;;;;;4.53;1.92;;;;;;;29.03;24.40;99819.94;4970756;28;20023;-88
2023/09/29 12:08:29;;;;;;;4.70;1.42;;;;;;;29.23;24.10;99854.31;4971236;28;20049;-88
2023/09/29 12:10:55;;;;;;;4.28;1.77;;;;;;;29.28;24.64;99843.00;4971655;28;20121;-90
2023/09/29 12:13:26;;;;;;;5.45;2.10;;;;;;;29.17;24.60;99829.53;4971183;28;20071;-87
2023/09/29 12:15:51;;;;;;;5.97;2.00;;;;;;;29.33;24.95;99851.59;4971286;28;20031;-88
2023/09/29 12:18:17;;;;;;;9.38;2.50;;;;;;;29.07;25.26;99821.34;4950375;29;20046;-88
2023/09/29 12:20:43;;;;;;;6.70;2.95;;;;;;;29.03;24.91;99815.34;4951475;29;20023;-86
2023/09/29 12:23:11;;;;;;;41.45;20.90;;;;;;;28.99;25.03;99816.59;4951814;29;20050;-87
2023/09/29 12:25:40;;;;;;;22.08;12.32;;;;;;;29.26;25.31;99867.59;4954751;28;20031;-92
2023/09/29 12:28:09;;;;;;;18.25;8.52;;;;;;;29.09;25.03;99820.22;4938062;28;20035;-86
2023/09/29 12:30:38;;;;;;;8.65;4.50;;;;;;;28.82;25.13;99801.84;4970748;28;20105;-89
2023/09/29 12:33:04;;;;;;;8.15;2.85;;;;;;;28.98;25.16;99792.31;4971288;28;20035;-88
2023/09/29 12:35:30;;;;;;;18.05;6.68;;;;;;;29.05;25.07;99785.34;4970463;28;20453;-86
2023/09/29 12:37:55;;;;;;;5.85;2.90;;;;;;;29.35;24.85;99787.13;4970313;28;20481;-84
2023/09/29 12:40:21;;;;;;;13.32;2.92;;;;;;;29.29;24.59;99801.28;4970688;28;20030;-84
2023/09/29 12:42:50;;;;;;;4.82;2.17;;;;;;;29.19;24.71;99793.06;4970752;28;20031;-84
2023/09/29 12:45:23;;;;;;;3.67;1.85;;;;;;;29.34;24.90;99800.84;4970310;28;20034;-84
2023/09/29 12:47:54;;;;;;;3.90;1.92;;;;;;;29.28;24.83;99794.13;4970512;28;20031;-84
2023/09/29 12:50:21;;;;;;;6.32;2.20;;;;;;;29.20;24.89;99772.25;4968902;28;20046;-86
2023/09/29 12:52:51;;;;;;;5.78;2.10;;;;;;;29.34;25.06;99799.00;4938994;28;20035;-86
2023/09/29 12:55:18;;;;;;;21.75;9.23;;;;;;;29.24;24.84;99768.22;4971061;28;20501;-87
2023/09/29 12:57:44;;;;;;;7.30;3.80;;;;;;;29.29;24.78;99768.69;4970175;28;20122;-86
2023/09/29 13:00:18;;;;;;;2.55;1.88;;;;;;;29.26;25.38;99763.53;4970382;28;20114;-85
2023/09/29 13:02:45;;;;;;;7.70;3.03;;;;;;;29.59;25.44;99788.56;4955313;28;20035;-86
2023/09/29 13:05:10;;;;;;;9.85;4.28;;;;;;;29.73;25.47;99771.81;4969560;28;20045;-85
2023/09/29 13:07:36;;;;;;;6.20;3.30;;;;;;;29.81;25.52;99814.59;4970462;28;20227;-86
2023/09/29 13:10:01;;;;;;;4.00;2.28;;;;;;;29.54;24.81;99775.41;4970315;28;20113;-86
2023/09/29 13:12:27;;;;;;;3.55;1.98;;;;;;;30.06;24.80;99785.09;4969559;28;20448;-87
2023/09/29 13:14:53;;;;;;;6.82;1.60;;;;;;;29.78;24.75;99769.53;4970424;28;20074;-87
2023/09/29 13:17:18;;;;;;;5.55;1.98;;;;;;;29.79;25.87;99760.34;4969799;28;20023;-87
2023/09/29 13:19:44;;;;;;;3.75;1.80;;;;;;;29.80;26.48;99767.56;4970416;28;20086;-86
2023/09/29 13:22:09;;;;;;;5.35;1.88;;;;;;;29.93;25.73;99793.56;4943612;28;20046;-84
2023/09/29 13:24:35;;;;;;;7.20;2.35;;;;;;;29.82;25.66;99749.22;4953072;28;20031;-84
2023/09/29 13:27:00;;;;;;;5.65;2.00;;;;;;;29.84;25.05;99749.06;4970689;28;20097;-85
2023/09/29 13:29:27;;;;;;;3.15;2.05;;;;;;;29.96;25.32;99779.69;4969740;28;20039;-85
2023/09/29 13:31:53;;;;;;;2.83;1.50;;;;;;;29.66;25.18;99784.28;4970205;28;20071;-85
2023/09/29 13:34:19;;;;;;;5.05;1.50;;;;;;;29.62;25.84;99764.66;4980078;28;20061;-86
2023/09/29 13:36:45;;;;;;;4.30;1.85;;;;;;;29.59;26.24;99766.81;4972324;28;20019;-86
2023/09/29 13:39:11;;;;;;;5.43;2.05;;;;;;;29.09;26.10;99757.75;4953144;28;20518;-86
2023/09/29 13:41:37;;;;;;;3.17;1.25;;;;;;;29.85;26.15;99818.75;4970462;28;20413;-86
2023/09/29 13:44:03;;;;;;;2.78;1.55;;;;;;;29.36;26.15;99752.66;4970499;28;20043;-85
2023/09/29 13:46:29;;;;;;;4.32;2.03;;;;;;;29.70;26.09;99774.81;4969086;28;20026;-86
2023/09/29 13:48:54;;;;;;;8.25;1.55;;;;;;;29.63;26.18;99732.94;4969690;28;20046;-85
2023/09/29 13:51:20;;;;;;;8.45;2.33;;;;;;;29.96;26.04;99760.66;4970450;28;20433;-85
2023/09/29 13:53:46;;;;;;;3.05;1.55;;;;;;;30.17;26.46;99793.94;4972710;28;20129;-86
2023/09/29 13:56:12;;;;;;;3.28;1.52;;;;;;;29.87;25.94;99756.94;4973697;28;20490;-85
2023/09/29 13:58:39;;;;;;;4.28;1.45;;;;;;;29.82;26.20;99732.06;4974069;28;20054;-85
2023/09/29 14:01:13;;;;;;;2.38;1.10;;;;;;;29.99;26.11;99747.63;4973470;28;20027;-87
2023/09/29 14:03:39;;;;;;;5.03;1.77;;;;;;;29.93;26.08;99755.50;4974635;28;20023;-86
2023/09/29 14:06:06;;;;;;;1.95;1.30;;;;;;;29.69;26.85;99747.78;4973575;28;20042;-86
2023/09/29 14:08:33;;;;;;;3.45;1.33;;;;;;;29.51;27.10;99791.16;4973347;28;20517;-87
2023/09/29 14:10:59;;;;;;;5.85;2.30;;;;;;;28.86;27.72;99723.72;4973638;28;20481;-85
2023/09/29 14:13:25;;;;;;;12.00;1.50;;;;;;;28.92;27.78;99734.88;4973926;28;20120;-87
2023/09/29 14:15:53;;;;;;;2.70;1.95;;;;;;;28.91;27.68;99737.72;4973969;28;20106;-87
2023/09/29 14:18:18;;;;;;;3.28;1.50;;;;;;;29.21;27.65;99780.25;4974329;28;20027;-87
2023/09/29 14:20:44;;;;;;;5.50;1.77;;;;;;;29.05;27.75;99755.47;4973933;28;20114;-86
2023/09/29 14:23:11;;;;;;;2.55;1.20;;;;;;;28.97;27.91;99761.59;4973585;28;20432;-86
2023/09/29 14:25:37;;;;;;;5.80;2.83;;;;;;;28.79;27.97;99760.56;4974035;28;20097;-84
2023/09/29 14:28:04;;;;;;;3.72;1.83;;;;;;;28.74;28.11;99780.81;4973196;28;20035;-86
2023/09/29 14:30:31;;;;;;;2.35;1.55;;;;;;;28.79;28.43;99787.69;4974049;28;20488;-88